createdAt,value
2023-12-16T00:02:10.353Z,6.90
2023-12-16T00:04:42.069Z,6.67
2023-12-16T00:07:12.683Z,7.47
2023-12-16T00:09:43.016Z,6.83
2023-12-16T00:12:13.859Z,6.55
2023-12-16T00:14:44.021Z,6.17
2023-12-16T00:17:14.192Z,6.58
2023-12-16T00:19:44.635Z,5.62
2023-12-16T00:22:15.009Z,6.65
2023-12-16T00:24:45.340Z,6.33
2023-12-16T00:27:16.560Z,5.70
2023-12-16T00:29:46.440Z,6.67
2023-12-16T00:32:17.569Z,6.42
2023-12-16T00:34:47.530Z,6.55
2023-12-16T00:37:17.747Z,5.85
2023-12-16T00:39:48.008Z,5.15
2023-12-16T00:42:18.303Z,6.22
2023-12-16T00:44:48.466Z,5.80
2023-12-16T00:47:18.635Z,6.42
2023-12-16T00:49:49.781Z,5.97
2023-12-16T00:52:19.884Z,6.17
2023-12-16T00:54:50.192Z,5.67
2023-12-16T00:57:20.466Z,5.47
2023-12-16T00:59:50.621Z,6.40
2023-12-16T01:02:21.755Z,6.30
2023-12-16T01:04:53.443Z,5.28
2023-12-16T01:07:23.884Z,5.30
2023-12-16T01:09:55.790Z,5.92
2023-12-16T01:12:25.966Z,5.45
2023-12-16T01:14:56.120Z,5.90
2023-12-16T01:17:26.387Z,5.17
2023-12-16T01:19:56.659Z,5.03
2023-12-16T01:22:27.123Z,5.97
2023-12-16T01:24:57.759Z,5.40
2023-12-16T01:27:27.982Z,5.80
2023-12-16T01:29:58.188Z,5.37
2023-12-16T01:32:28.348Z,5.40
2023-12-16T01:34:58.638Z,6.65
2023-12-16T01:37:30.619Z,5.95
2023-12-16T01:40:01.618Z,4.67
2023-12-16T01:42:31.612Z,5.15
2023-12-16T01:45:01.992Z,5.45
2023-12-16T01:47:33.741Z,4.87
2023-12-16T01:50:04.949Z,4.83
2023-12-16T01:52:35.252Z,5.47
2023-12-16T01:55:07.274Z,5.00
2023-12-16T01:57:38.589Z,4.42
2023-12-16T02:00:09.472Z,4.17
2023-12-16T02:02:42.448Z,5.15
2023-12-16T02:05:13.640Z,5.20
2023-12-16T02:07:46.332Z,3.87
2023-12-16T02:10:16.651Z,5.08
2023-12-16T02:12:46.945Z,4.37
2023-12-16T02:15:17.226Z,6.05
2023-12-16T02:17:47.404Z,5.78
2023-12-16T02:20:20.031Z,4.72
2023-12-16T02:22:50.828Z,5.05
2023-12-16T02:25:21.076Z,4.70
2023-12-16T02:27:52.223Z,4.50
2023-12-16T02:30:23.993Z,5.80
2023-12-16T02:35:24.198Z,5.37
2023-12-16T02:37:54.419Z,5.87
2023-12-16T02:40:24.700Z,4.60
2023-12-16T02:42:55.154Z,5.17
2023-12-16T02:45:27.252Z,5.75
2023-12-16T02:47:58.469Z,6.03
2023-12-16T02:50:30.113Z,5.40
2023-12-16T02:55:29.143Z,5.00
2023-12-16T02:57:59.547Z,6.00
2023-12-16T03:00:29.700Z,5.70
2023-12-16T03:02:59.928Z,5.28
2023-12-16T03:05:31.172Z,6.17
2023-12-16T03:08:02.053Z,6.08
2023-12-16T03:10:32.070Z,6.08
2023-12-16T03:13:02.292Z,6.03
2023-12-16T03:15:32.467Z,6.22
2023-12-16T03:18:02.798Z,5.83
2023-12-16T03:20:35.044Z,6.40
2023-12-16T03:23:05.272Z,5.97
2023-12-16T03:25:35.550Z,6.12
2023-12-16T03:28:07.786Z,5.87
2023-12-16T03:30:41.850Z,5.75
2023-12-16T03:33:12.224Z,6.40
2023-12-16T03:35:42.573Z,6.65
2023-12-16T03:38:12.789Z,6.45
2023-12-16T03:40:43.139Z,6.85
2023-12-16T03:43:13.926Z,5.83
2023-12-16T03:45:44.362Z,6.17
2023-12-16T03:48:16.721Z,6.28
2023-12-16T03:50:46.946Z,5.92
2023-12-16T03:53:18.124Z,7.55
2023-12-16T03:55:50.164Z,5.40
2023-12-16T03:58:20.539Z,6.35
2023-12-16T04:00:53.673Z,5.62
2023-12-16T04:03:24.724Z,6.85
2023-12-16T04:05:54.667Z,5.95
2023-12-16T04:08:24.888Z,6.65
2023-12-16T04:10:55.124Z,4.80
2023-12-16T04:13:25.333Z,5.58
2023-12-16T04:15:55.582Z,6.05
2023-12-16T04:18:25.851Z,5.50
2023-12-16T04:20:56.453Z,5.22
2023-12-16T04:23:26.669Z,5.35
2023-12-16T04:25:56.900Z,4.58
2023-12-16T04:28:28.378Z,5.58
2023-12-16T04:30:58.479Z,4.85
2023-12-16T04:33:29.083Z,5.62
2023-12-16T04:35:59.318Z,5.25
2023-12-16T04:38:29.505Z,4.12
2023-12-16T04:41:00.960Z,5.67
2023-12-16T04:43:30.950Z,4.85
2023-12-16T04:46:02.598Z,4.78
2023-12-16T04:48:32.331Z,4.83
2023-12-16T04:51:07.063Z,4.83
2023-12-16T04:53:39.882Z,5.80
2023-12-16T04:56:10.204Z,5.50
2023-12-16T04:58:40.389Z,5.08
2023-12-16T05:01:10.720Z,5.35
2023-12-16T05:03:43.222Z,4.85
2023-12-16T05:06:13.859Z,5.20
2023-12-16T05:08:44.095Z,4.67
2023-12-16T05:11:15.402Z,4.85
2023-12-16T05:13:45.533Z,5.25
2023-12-16T05:16:20.760Z,4.72
2023-12-16T05:18:52.040Z,5.08
2023-12-16T05:21:22.305Z,4.83
2023-12-16T05:23:53.428Z,4.85
2023-12-16T05:26:23.380Z,4.78
2023-12-16T05:28:57.458Z,5.70
2023-12-16T05:31:28.641Z,5.12
2023-12-16T05:33:58.655Z,4.28
2023-12-16T05:36:28.881Z,5.92
2023-12-16T05:38:59.062Z,5.53
2023-12-16T05:41:29.273Z,6.00
2023-12-16T05:43:59.580Z,5.50
2023-12-16T05:46:29.774Z,5.30
2023-12-16T05:49:00.094Z,6.15
2023-12-16T05:51:30.417Z,4.25
2023-12-16T05:54:00.656Z,4.97
2023-12-16T05:56:31.168Z,5.22
2023-12-16T05:59:02.493Z,4.90
2023-12-16T06:01:32.734Z,6.03
2023-12-16T06:04:04.074Z,5.03
2023-12-16T06:06:35.733Z,4.55
2023-12-16T06:09:05.987Z,4.70
2023-12-16T06:11:36.300Z,4.92
2023-12-16T06:14:06.496Z,4.25
2023-12-16T06:16:36.578Z,5.58
2023-12-16T06:19:07.583Z,4.90
2023-12-16T06:21:37.643Z,6.47
2023-12-16T06:24:09.893Z,5.08
2023-12-16T06:26:40.158Z,5.92
2023-12-16T06:29:10.417Z,5.20
2023-12-16T06:31:40.699Z,5.20
2023-12-16T06:34:11.058Z,6.10
2023-12-16T06:36:42.505Z,6.00
2023-12-16T06:39:12.561Z,6.90
2023-12-16T06:41:42.842Z,6.60
2023-12-16T06:44:13.092Z,7.10
2023-12-16T06:46:43.486Z,6.90
2023-12-16T06:49:13.783Z,5.45
2023-12-16T06:51:45.725Z,6.25
2023-12-16T06:56:49.844Z,4.85
2023-12-16T06:59:21.824Z,6.60
2023-12-16T07:01:52.523Z,6.40
2023-12-16T07:04:22.672Z,7.62
2023-12-16T07:06:52.957Z,6.03
2023-12-16T07:09:23.258Z,6.37
2023-12-16T07:11:54.100Z,6.85
2023-12-16T07:14:24.528Z,6.35
2023-12-16T07:16:55.987Z,6.17
2023-12-16T07:19:26.182Z,6.65
2023-12-16T07:21:57.017Z,7.40
2023-12-16T07:24:27.240Z,6.17
2023-12-16T07:26:57.486Z,7.33
2023-12-16T07:29:30.828Z,8.13
2023-12-16T07:32:01.156Z,7.28
2023-12-16T07:34:31.700Z,7.55
2023-12-16T07:37:02.173Z,7.55
2023-12-16T07:39:33.434Z,7.72
2023-12-16T07:42:03.489Z,5.65
2023-12-16T07:44:34.658Z,8.03
2023-12-16T07:47:04.802Z,6.55
2023-12-16T07:49:34.999Z,7.20
2023-12-16T07:52:05.885Z,7.30
2023-12-16T07:54:36.562Z,7.30
2023-12-16T07:57:06.700Z,8.38
2023-12-16T07:59:39.017Z,7.80
2023-12-16T08:02:12.876Z,8.78
2023-12-16T08:04:43.405Z,6.90
2023-12-16T08:07:14.450Z,7.70
2023-12-16T08:09:45.790Z,7.35
2023-12-16T08:12:15.808Z,6.78
2023-12-16T08:14:45.973Z,6.95
2023-12-16T08:17:16.243Z,6.87
2023-12-16T08:19:47.105Z,7.20
2023-12-16T08:22:16.775Z,7.03
2023-12-16T08:24:46.912Z,7.08
2023-12-16T08:27:17.197Z,7.00
2023-12-16T08:29:48.405Z,7.50
2023-12-16T08:32:18.481Z,5.75
2023-12-16T08:34:49.650Z,7.22
2023-12-16T08:37:20.570Z,6.08
2023-12-16T08:39:50.566Z,5.85
2023-12-16T08:42:20.811Z,7.17
2023-12-16T08:44:51.026Z,6.47
2023-12-16T08:47:22.120Z,7.12
2023-12-16T08:49:52.344Z,7.25
2023-12-16T08:52:22.669Z,7.30
2023-12-16T08:54:53.846Z,7.80
2023-12-16T08:57:23.867Z,8.15
2023-12-16T08:59:54.055Z,7.80
2023-12-16T09:02:24.588Z,6.58
2023-12-16T09:04:55.006Z,7.97
2023-12-16T09:07:25.190Z,6.30
2023-12-16T09:09:56.345Z,5.78
2023-12-16T09:12:26.581Z,7.35
2023-12-16T09:14:56.739Z,7.22
2023-12-16T09:17:27.015Z,6.83
2023-12-16T09:19:57.195Z,6.37
2023-12-16T09:22:28.490Z,7.15
2023-12-16T09:24:58.700Z,7.47
2023-12-16T09:27:29.001Z,5.95
2023-12-16T09:29:59.161Z,6.28
2023-12-16T09:32:29.532Z,7.10
2023-12-16T09:34:59.795Z,6.80
2023-12-16T09:37:30.256Z,7.08
2023-12-16T09:40:00.691Z,5.30
2023-12-16T09:42:31.901Z,7.25
2023-12-16T09:45:01.754Z,5.58
2023-12-16T09:47:33.478Z,6.20
2023-12-16T09:50:03.838Z,4.87
2023-12-16T09:52:35.630Z,5.72
2023-12-16T09:55:07.288Z,5.72
2023-12-16T09:57:42.273Z,6.62
2023-12-16T10:00:14.295Z,6.03
2023-12-16T10:02:46.553Z,5.60
2023-12-16T10:05:18.480Z,5.65
2023-12-16T10:07:48.763Z,4.83
2023-12-16T10:10:19.070Z,4.50
2023-12-16T10:12:49.490Z,3.92
2023-12-16T10:15:32.645Z,4.28
2023-12-16T10:18:04.556Z,4.45
2023-12-16T10:20:34.765Z,3.62
2023-12-16T10:23:07.403Z,4.90
2023-12-16T10:25:38.913Z,4.95
2023-12-16T10:28:10.989Z,4.40
2023-12-16T10:30:41.228Z,4.47
2023-12-16T10:33:11.696Z,4.45
2023-12-16T10:35:43.733Z,4.70
2023-12-16T10:38:15.582Z,3.92
2023-12-16T10:43:14.484Z,3.52
2023-12-16T10:45:45.012Z,4.15
2023-12-16T10:48:18.181Z,3.50
2023-12-16T10:50:50.173Z,3.30
2023-12-16T10:53:27.629Z,4.15
2023-12-16T10:56:00.909Z,3.70
2023-12-16T10:58:33.100Z,4.65
2023-12-16T11:01:06.925Z,3.27
2023-12-16T11:03:43.266Z,3.55
2023-12-16T11:06:19.518Z,2.85
2023-12-16T11:08:52.402Z,3.40
2023-12-16T11:11:23.222Z,3.10
2023-12-16T11:13:55.759Z,2.20
2023-12-16T11:16:29.694Z,2.35
2023-12-16T11:19:01.109Z,2.72
2023-12-16T11:21:32.454Z,2.17
2023-12-16T11:24:03.705Z,2.83
2023-12-16T11:26:35.304Z,2.90
2023-12-16T11:29:05.791Z,3.50
2023-12-16T11:31:37.811Z,3.13
2023-12-16T11:34:08.227Z,3.87
2023-12-16T11:36:51.381Z,2.40
2023-12-16T11:39:49.637Z,3.12
2023-12-16T11:42:22.908Z,2.40
2023-12-16T11:44:56.018Z,3.10
2023-12-16T11:47:30.740Z,2.12
2023-12-16T11:50:02.583Z,2.62
2023-12-16T11:52:34.789Z,2.77
2023-12-16T11:55:06.640Z,2.50
2023-12-16T12:00:08.981Z,2.47
2023-12-16T12:02:39.267Z,2.05
2023-12-16T12:05:14.646Z,3.00
2023-12-16T12:07:45.296Z,2.83
2023-12-16T12:10:16.114Z,3.25
2023-12-16T12:12:46.340Z,2.45
2023-12-16T12:15:20.083Z,2.15
2023-12-16T12:17:49.365Z,3.08
2023-12-16T12:20:20.701Z,2.60
2023-12-16T12:25:22.909Z,2.17
2023-12-16T12:27:53.075Z,2.20
2023-12-16T12:30:23.520Z,2.25
2023-12-16T12:32:53.971Z,3.02
2023-12-16T12:35:24.724Z,2.25
2023-12-16T12:37:55.167Z,2.30
2023-12-16T12:40:26.088Z,3.47
2023-12-16T12:42:58.881Z,2.20
2023-12-16T12:45:39.170Z,2.40
2023-12-16T12:48:18.125Z,1.80
2023-12-16T12:50:54.888Z,2.17
2023-12-16T12:53:26.523Z,2.67
2023-12-16T12:55:58.423Z,1.90
2023-12-16T12:58:31.057Z,2.22
2023-12-16T13:01:04.602Z,2.37
2023-12-16T13:03:36.561Z,2.35
2023-12-16T13:06:09.007Z,2.12
2023-12-16T13:08:40.272Z,2.67
2023-12-16T13:11:11.455Z,3.00
2023-12-16T13:13:41.333Z,2.55
2023-12-16T13:16:13.312Z,3.05
2023-12-16T13:18:44.558Z,2.70
2023-12-16T13:21:16.306Z,3.02
2023-12-16T13:23:45.986Z,2.40
2023-12-16T13:26:17.029Z,2.83
2023-12-16T13:28:46.950Z,2.20
2023-12-16T13:31:17.163Z,3.20
2023-12-16T13:33:47.586Z,2.90
2023-12-16T13:36:33.747Z,2.27
2023-12-16T13:38:50.083Z,3.25
2023-12-16T13:41:20.524Z,2.15
2023-12-16T13:43:51.672Z,3.22
2023-12-16T13:46:21.537Z,2.20
2023-12-16T13:48:51.865Z,2.30
2023-12-16T13:51:22.082Z,2.83
2023-12-16T13:53:52.332Z,3.67
2023-12-16T13:56:22.559Z,1.55
2023-12-16T13:58:52.716Z,2.70
2023-12-16T14:01:22.876Z,2.20
2023-12-16T14:03:53.184Z,2.52
2023-12-16T14:06:23.548Z,2.37
2023-12-16T14:08:53.835Z,3.35
2023-12-16T14:11:25.011Z,2.70
2023-12-16T14:13:56.352Z,2.20
2023-12-16T14:16:26.198Z,2.72
2023-12-16T14:18:57.435Z,2.20
2023-12-16T14:21:28.391Z,3.05
2023-12-16T14:23:58.499Z,2.37
2023-12-16T14:26:28.650Z,2.62
2023-12-16T14:28:58.872Z,2.55
2023-12-16T14:31:29.076Z,2.87
2023-12-16T14:33:59.467Z,2.83
2023-12-16T14:36:31.464Z,2.60
2023-12-16T14:41:31.794Z,2.63
2023-12-16T14:44:02.119Z,2.65
2023-12-16T14:46:33.701Z,2.05
2023-12-16T14:49:03.905Z,2.70
2023-12-16T14:51:40.515Z,2.30
2023-12-16T14:54:10.881Z,2.95
2023-12-16T14:56:42.143Z,2.45
2023-12-16T14:59:12.096Z,2.02
2023-12-16T15:01:42.307Z,2.10
2023-12-16T15:04:13.662Z,2.50
2023-12-16T15:06:43.702Z,2.12
2023-12-16T15:09:16.018Z,1.65
2023-12-16T15:11:46.608Z,1.85
2023-12-16T15:14:17.787Z,2.22
2023-12-16T15:16:47.663Z,2.40
2023-12-16T15:19:17.973Z,2.22
2023-12-16T15:21:49.867Z,1.98
2023-12-16T15:24:20.662Z,2.20
2023-12-16T15:26:50.728Z,2.65
2023-12-16T15:29:23.458Z,2.30
2023-12-16T15:31:55.264Z,1.92
2023-12-16T15:37:03.719Z,2.65
2023-12-16T15:39:30.414Z,3.67
2023-12-16T15:42:04.809Z,1.87
2023-12-16T15:44:36.984Z,1.55
2023-12-16T15:47:08.520Z,2.08
2023-12-16T15:49:38.915Z,2.60
2023-12-16T15:52:10.222Z,2.95
2023-12-16T15:54:40.122Z,2.40
2023-12-16T15:57:11.440Z,2.47
2023-12-16T15:59:41.654Z,2.67
2023-12-16T16:02:12.836Z,3.58
2023-12-16T16:04:42.708Z,3.70
2023-12-16T16:07:12.901Z,3.72
2023-12-16T16:09:43.130Z,3.02
2023-12-16T16:12:13.363Z,3.35
2023-12-16T16:14:44.466Z,3.15
2023-12-16T16:17:15.681Z,4.03
2023-12-16T16:19:49.399Z,4.35
2023-12-16T16:22:19.657Z,4.15
2023-12-16T16:24:51.253Z,4.55
2023-12-16T16:27:22.545Z,4.65
2023-12-16T16:29:53.001Z,5.08
2023-12-16T16:32:23.239Z,3.30
2023-12-16T16:34:53.540Z,5.10
2023-12-16T16:37:27.515Z,5.60
2023-12-16T16:39:56.731Z,5.03
2023-12-16T16:42:28.818Z,4.72
2023-12-16T16:45:00.221Z,4.83
2023-12-16T16:47:30.329Z,4.97
2023-12-16T16:50:00.916Z,4.20
2023-12-16T16:52:32.176Z,4.53
2023-12-16T16:55:03.719Z,4.33
2023-12-16T17:00:06.626Z,4.95
2023-12-16T17:02:38.962Z,4.53
2023-12-16T17:05:11.057Z,4.12
2023-12-16T17:07:42.974Z,4.05
2023-12-16T17:10:13.026Z,5.07
2023-12-16T17:12:44.931Z,4.60
2023-12-16T17:17:45.088Z,4.15
2023-12-16T17:20:16.080Z,4.03
2023-12-16T17:22:46.147Z,4.23
2023-12-16T17:25:16.833Z,3.95
2023-12-16T17:27:47.112Z,3.95
2023-12-16T17:30:17.719Z,4.75
2023-12-16T17:32:49.198Z,3.92
2023-12-16T17:35:19.594Z,4.40
2023-12-16T17:37:49.828Z,3.95
2023-12-16T17:40:20.033Z,3.42
2023-12-16T17:42:50.352Z,4.12
2023-12-16T17:45:21.060Z,4.47
2023-12-16T17:47:52.329Z,5.12
2023-12-16T17:50:24.396Z,3.52
2023-12-16T17:52:54.927Z,4.70
2023-12-16T17:55:26.083Z,4.08
2023-12-16T17:57:55.953Z,5.65
2023-12-16T18:00:26.151Z,3.42
2023-12-16T18:02:56.655Z,4.35
2023-12-16T18:05:27.202Z,4.15
2023-12-16T18:07:57.667Z,4.33
2023-12-16T18:10:28.821Z,3.60
2023-12-16T18:12:59.906Z,2.92
2023-12-16T18:15:29.864Z,2.85
2023-12-16T18:18:00.111Z,4.22
2023-12-16T18:20:31.264Z,5.30
2023-12-16T18:23:01.130Z,5.17
2023-12-16T18:25:32.851Z,4.65
2023-12-16T18:28:02.752Z,5.83
2023-12-16T18:30:33.579Z,4.25
2023-12-16T18:33:06.572Z,4.03
2023-12-16T18:35:39.346Z,3.83
2023-12-16T18:38:10.444Z,3.17
2023-12-16T18:40:40.391Z,3.20
2023-12-16T18:43:10.558Z,4.00
2023-12-16T18:45:40.832Z,4.20
2023-12-16T18:48:12.270Z,3.50
2023-12-16T18:50:43.983Z,3.85
2023-12-16T18:55:42.523Z,3.45
2023-12-16T18:58:12.723Z,3.42
2023-12-16T19:00:46.560Z,3.02
2023-12-16T19:03:18.755Z,3.12
2023-12-16T19:05:49.499Z,2.80
2023-12-16T19:08:20.693Z,3.47
2023-12-16T19:10:51.533Z,4.28
2023-12-16T19:13:24.109Z,6.22
2023-12-16T19:15:54.553Z,3.45
2023-12-16T19:18:24.848Z,4.47
2023-12-16T19:20:56.069Z,4.17
2023-12-16T19:23:27.500Z,4.67
2023-12-16T19:25:57.429Z,3.83
2023-12-16T19:28:27.705Z,4.65
2023-12-16T19:30:57.898Z,5.42
2023-12-16T19:33:34.673Z,5.22
2023-12-16T19:36:07.277Z,6.85
2023-12-16T19:38:38.549Z,6.60
2023-12-16T19:41:09.885Z,4.97
2023-12-16T19:43:39.752Z,5.70
2023-12-16T19:46:11.578Z,5.40
2023-12-16T19:48:43.639Z,5.28
2023-12-16T19:51:16.550Z,5.40
2023-12-16T19:53:49.581Z,5.10
2023-12-16T19:56:19.786Z,4.85
2023-12-16T19:58:51.970Z,5.05
2023-12-16T20:01:22.569Z,3.95
2023-12-16T20:03:53.357Z,5.83
2023-12-16T20:06:23.761Z,5.53
2023-12-16T20:08:54.032Z,4.40
2023-12-16T20:11:26.008Z,5.17
2023-12-16T20:13:57.262Z,5.53
2023-12-16T20:16:27.175Z,5.30
2023-12-16T20:18:58.556Z,4.28
2023-12-16T20:21:30.887Z,4.95
2023-12-16T20:24:01.219Z,5.75
2023-12-16T20:26:31.515Z,5.00
2023-12-16T20:29:02.001Z,5.80
2023-12-16T20:31:33.845Z,4.42
2023-12-16T20:34:03.583Z,3.75
2023-12-16T20:36:34.432Z,5.05
2023-12-16T20:39:23.904Z,4.42
2023-12-16T20:41:56.156Z,4.12
2023-12-16T20:44:26.323Z,4.78
2023-12-16T20:46:57.717Z,5.05
2023-12-16T20:49:27.773Z,5.42
2023-12-16T20:51:59.869Z,5.25
2023-12-16T20:56:59.906Z,5.05
2023-12-16T20:59:30.111Z,5.25
2023-12-16T21:02:01.978Z,5.28
2023-12-16T21:07:03.709Z,5.70
2023-12-16T21:09:35.328Z,5.28
2023-12-16T21:12:05.384Z,4.90
2023-12-16T21:14:35.664Z,5.60
2023-12-16T21:17:06.473Z,4.42
2023-12-16T21:19:36.816Z,4.10
2023-12-16T21:22:07.424Z,5.08
2023-12-16T21:24:39.722Z,6.62
2023-12-16T21:27:12.244Z,4.35
2023-12-16T21:29:46.561Z,4.75
2023-12-16T21:32:17.120Z,4.47
2023-12-16T21:34:47.504Z,4.58
2023-12-16T21:37:18.773Z,4.70
2023-12-16T21:39:48.786Z,3.70
2023-12-16T21:42:19.436Z,4.20
2023-12-16T21:44:50.186Z,4.15
2023-12-16T21:47:21.379Z,3.33
2023-12-16T21:49:51.303Z,4.70
2023-12-16T21:52:21.909Z,3.87
2023-12-16T21:54:52.072Z,2.65
2023-12-16T21:57:22.307Z,2.75
2023-12-16T21:59:52.670Z,2.95
2023-12-16T22:02:23.703Z,3.05
2023-12-16T22:04:53.562Z,3.33
2023-12-16T22:07:23.805Z,3.00
2023-12-16T22:09:54.271Z,2.45
2023-12-16T22:12:25.057Z,2.62
2023-12-16T22:14:55.352Z,2.17
2023-12-16T22:17:25.675Z,2.58
2023-12-16T22:19:59.880Z,2.02
2023-12-16T22:22:30.054Z,2.90
2023-12-16T22:25:00.382Z,2.55
2023-12-16T22:27:32.887Z,2.98
2023-12-16T22:30:04.650Z,2.92
2023-12-16T22:32:35.618Z,2.02
2023-12-16T22:35:07.094Z,2.05
2023-12-16T22:40:08.171Z,2.40
2023-12-16T22:42:38.191Z,2.08
2023-12-16T22:45:10.998Z,2.67
2023-12-16T22:47:41.942Z,2.83
2023-12-16T22:50:12.626Z,2.52
2023-12-16T22:52:43.811Z,3.10
2023-12-16T22:55:14.716Z,4.08
2023-12-16T22:57:45.862Z,2.60
2023-12-16T23:00:29.339Z,1.98
2023-12-16T23:03:00.180Z,3.15
2023-12-16T23:05:30.135Z,2.40
2023-12-16T23:08:01.327Z,2.52
2023-12-16T23:10:31.181Z,2.22
2023-12-16T23:13:02.459Z,2.42
2023-12-16T23:15:33.236Z,3.08
2023-12-16T23:18:04.210Z,2.80
2023-12-16T23:20:34.211Z,2.67
2023-12-16T23:23:05.021Z,2.10
2023-12-16T23:25:34.655Z,2.13
2023-12-16T23:28:04.894Z,2.22
2023-12-16T23:30:35.267Z,1.47
2023-12-16T23:33:05.603Z,2.42
2023-12-16T23:35:35.880Z,1.80
2023-12-16T23:38:06.228Z,2.87
2023-12-16T23:40:36.745Z,2.33
2023-12-16T23:43:06.886Z,1.85
2023-12-16T23:45:38.021Z,1.98
2023-12-16T23:48:08.088Z,2.12
2023-12-16T23:50:38.447Z,2.33
2023-12-16T23:53:08.986Z,2.20
2023-12-16T23:55:39.789Z,2.05
2023-12-16T23:58:09.865Z,1.57
